createdAt,value
2019-03-01T00:00:16.945Z,100433.70
2019-03-01T00:02:45.126Z,100431.11
2019-03-01T00:05:47.294Z,100432.42
2019-03-01T00:08:15.861Z,100434.58
2019-03-01T00:11:00.368Z,100433.65
2019-03-01T00:13:50.003Z,100439.34
2019-03-01T00:16:25.768Z,100433.63
2019-03-01T00:19:07.717Z,100430.04
2019-03-01T00:21:41.700Z,100438.81
2019-03-01T00:24:11.604Z,100431.48
2019-03-01T00:26:50.462Z,100418.04
2019-03-01T00:29:26.134Z,100419.79
2019-03-01T00:32:14.273Z,100419.63
2019-03-01T00:34:52.759Z,100409.18
2019-03-01T00:37:28.683Z,100412.00
2019-03-01T00:40:27.544Z,100404.41
2019-03-01T00:43:32.617Z,100402.27
2019-03-01T00:45:58.741Z,100399.67
2019-03-01T00:48:24.929Z,100400.46
2019-03-01T00:50:51.151Z,100391.88
2019-03-01T00:53:17.444Z,100391.34
2019-03-01T00:55:43.733Z,100388.19
2019-03-01T00:58:10.111Z,100388.05
2019-03-01T01:00:42.843Z,100386.33
2019-03-01T01:03:09.177Z,100386.25
2019-03-01T01:05:35.483Z,100384.23
2019-03-01T01:08:01.700Z,100380.04
2019-03-01T01:10:27.913Z,100369.66
2019-03-01T01:12:54.136Z,100365.86
2019-03-01T01:15:20.408Z,100362.41
2019-03-01T01:17:46.595Z,100357.64
2019-03-01T01:20:12.882Z,100350.28
2019-03-01T01:22:39.136Z,100354.85
2019-03-01T01:25:05.452Z,100358.52
2019-03-01T01:27:31.785Z,100357.70
2019-03-01T01:29:58.013Z,100358.34
2019-03-01T01:32:24.151Z,100354.45
2019-03-01T01:34:50.226Z,100352.28
2019-03-01T01:37:16.322Z,100348.39
2019-03-01T01:39:42.525Z,100353.77
2019-03-01T01:42:08.739Z,100350.38
2019-03-01T01:44:34.836Z,100345.20
2019-03-01T01:47:01.141Z,100345.00
2019-03-01T01:49:27.251Z,100342.41
2019-03-01T01:51:53.356Z,100343.70
2019-03-01T01:54:19.568Z,100331.83
2019-03-01T01:56:45.946Z,100328.50
2019-03-01T01:59:12.145Z,100328.50
2019-03-01T02:01:38.282Z,100327.73
2019-03-01T02:04:04.789Z,100329.52
2019-03-01T02:06:30.989Z,100325.93
2019-03-01T02:08:57.229Z,100318.84
2019-03-01T02:11:23.642Z,100329.23
2019-03-01T02:13:49.751Z,100318.59
2019-03-01T02:16:16.050Z,100317.55
2019-03-01T02:18:42.162Z,100321.63
2019-03-01T02:21:08.493Z,100314.95
2019-03-01T02:23:34.889Z,100309.15
2019-03-01T02:26:01.084Z,100311.53
2019-03-01T02:28:27.177Z,100309.42
2019-03-01T02:30:57.116Z,100308.70
2019-03-01T02:33:23.210Z,100296.52
2019-03-01T02:35:49.458Z,100301.48
2019-03-01T02:38:15.817Z,100303.75
2019-03-01T02:40:41.911Z,100305.92
2019-03-01T02:43:08.296Z,100299.54
2019-03-01T02:45:34.608Z,100295.14
2019-03-01T02:48:00.796Z,100299.48
2019-03-01T02:50:27.230Z,100296.89
2019-03-01T02:52:53.520Z,100296.52
2019-03-01T02:55:20.417Z,100297.84
2019-03-01T02:57:46.817Z,100301.34
2019-03-01T03:00:29.419Z,100297.39
2019-03-01T03:02:55.719Z,100296.52
2019-03-01T03:05:22.012Z,100296.03
2019-03-01T03:07:50.127Z,100294.30
2019-03-01T03:10:16.755Z,100295.14
2019-03-01T03:12:44.158Z,100295.30
2019-03-01T03:15:13.143Z,100291.03
2019-03-01T03:17:39.284Z,100292.76
2019-03-01T03:20:07.991Z,100282.23
2019-03-01T03:22:34.098Z,100282.87
2019-03-01T03:25:00.547Z,100282.72
2019-03-01T03:27:26.678Z,100284.45
2019-03-01T03:29:52.795Z,100287.98
2019-03-01T03:32:19.018Z,100282.55
2019-03-01T03:34:45.209Z,100286.77
2019-03-01T03:37:11.296Z,100284.84
2019-03-01T03:39:37.516Z,100289.66
2019-03-01T03:42:04.143Z,100282.50
2019-03-01T03:44:30.449Z,100289.10
2019-03-01T03:46:56.566Z,100293.25
2019-03-01T03:49:22.958Z,100296.78
2019-03-01T03:51:49.314Z,100289.81
2019-03-01T03:54:15.406Z,100285.47
2019-03-01T03:56:41.602Z,100283.91
2019-03-01T03:59:07.814Z,100287.44
2019-03-01T04:01:33.994Z,100277.50
2019-03-01T04:04:00.303Z,100279.72
2019-03-01T04:06:26.581Z,100279.56
2019-03-01T04:08:52.784Z,100274.45
2019-03-01T04:11:18.989Z,100276.62
2019-03-01T04:13:45.287Z,100276.96
2019-03-01T04:16:11.375Z,100274.92
2019-03-01T04:18:37.487Z,100274.66
2019-03-01T04:21:03.567Z,100273.73
2019-03-01T04:23:29.784Z,100272.86
2019-03-01T04:25:55.898Z,100272.27
2019-03-01T04:28:21.993Z,100276.25
2019-03-01T04:30:48.091Z,100276.98
2019-03-01T04:33:14.479Z,100272.72
2019-03-01T04:35:40.701Z,100274.50
2019-03-01T04:38:06.873Z,100271.71
2019-03-01T04:40:33.009Z,100265.70
2019-03-01T04:42:59.328Z,100263.93
2019-03-01T04:45:25.457Z,100264.77
2019-03-01T04:47:51.653Z,100263.84
2019-03-01T04:50:17.871Z,100253.02
2019-03-01T04:52:43.990Z,100250.87
2019-03-01T04:55:19.362Z,100251.53
2019-03-01T04:57:45.469Z,100247.11
2019-03-01T05:00:15.534Z,100246.27
2019-03-01T05:02:42.933Z,100246.12
2019-03-01T05:05:09.269Z,100246.18
2019-03-01T05:07:35.384Z,100252.98
2019-03-01T05:10:02.118Z,100254.92
2019-03-01T05:12:29.345Z,100254.20
2019-03-01T05:14:55.590Z,100256.06
2019-03-01T05:17:21.808Z,100257.16
2019-03-01T05:19:48.087Z,100258.66
2019-03-01T05:22:14.387Z,100256.36
2019-03-01T05:24:40.685Z,100261.40
2019-03-01T05:27:07.049Z,100259.69
2019-03-01T05:29:33.430Z,100262.40
2019-03-01T05:31:59.535Z,100268.70
2019-03-01T05:34:25.627Z,100268.48
2019-03-01T05:36:51.731Z,100270.87
2019-03-01T05:39:18.092Z,100271.86
2019-03-01T05:41:44.305Z,100272.30
2019-03-01T05:44:10.636Z,100264.81
2019-03-01T05:46:36.988Z,100266.92
2019-03-01T05:49:04.438Z,100271.80
2019-03-01T05:51:30.750Z,100268.89
2019-03-01T05:53:56.985Z,100268.53
2019-03-01T05:56:23.203Z,100270.84
2019-03-01T05:58:53.162Z,100270.03
2019-03-01T06:01:26.003Z,100278.10
2019-03-01T06:03:55.772Z,100278.47
2019-03-01T06:06:48.397Z,100277.31
2019-03-01T06:09:36.619Z,100283.45
2019-03-01T06:12:35.982Z,100279.27
2019-03-01T06:15:15.598Z,100286.31
2019-03-01T06:17:54.452Z,100289.55
2019-03-01T06:20:33.682Z,100285.92
2019-03-01T06:23:15.159Z,100282.73
2019-03-01T06:26:10.596Z,100279.12
2019-03-01T06:28:43.312Z,100281.77
2019-03-01T06:31:50.076Z,100289.02
2019-03-01T06:34:44.478Z,100285.89
2019-03-01T06:37:33.884Z,100297.72
2019-03-01T06:40:35.061Z,100293.23
2019-03-01T06:43:26.423Z,100300.23
2019-03-01T06:46:14.557Z,100290.64
2019-03-01T06:48:51.716Z,100295.06
2019-03-01T06:51:28.782Z,100291.29
2019-03-01T06:53:53.535Z,100297.21
2019-03-01T06:56:19.721Z,100294.25
2019-03-01T06:58:46.073Z,100304.06
2019-03-01T07:01:14.204Z,100292.88
2019-03-01T07:03:40.484Z,100293.80
2019-03-01T07:06:07.703Z,100293.41
2019-03-01T07:08:34.260Z,100298.23
2019-03-01T07:11:01.681Z,100304.52
2019-03-01T07:13:27.872Z,100310.69
2019-03-01T07:15:54.084Z,100309.81
2019-03-01T07:18:20.305Z,100317.68
2019-03-01T07:20:46.402Z,100307.30
2019-03-01T07:23:12.635Z,100319.42
2019-03-01T07:25:38.829Z,100321.73
2019-03-01T07:28:05.272Z,100317.84
2019-03-01T07:30:31.706Z,100329.61
2019-03-01T07:32:57.828Z,100326.56
2019-03-01T07:35:24.033Z,100330.62
2019-03-01T07:37:50.230Z,100333.33
2019-03-01T07:40:16.502Z,100333.12
2019-03-01T07:42:42.619Z,100340.83
2019-03-01T07:45:12.839Z,100342.77
2019-03-01T07:47:38.988Z,100344.81
2019-03-01T07:50:08.996Z,100343.70
2019-03-01T07:52:36.222Z,100342.49
2019-03-01T07:55:11.201Z,100349.17
2019-03-01T07:57:37.597Z,100345.58
2019-03-01T08:00:14.057Z,100348.31
2019-03-01T08:02:40.718Z,100355.58
2019-03-01T08:05:09.822Z,100359.04
2019-03-01T08:07:39.237Z,100357.16
2019-03-01T08:10:09.152Z,100363.09
2019-03-01T08:12:38.707Z,100361.72
2019-03-01T08:15:13.190Z,100364.95
2019-03-01T08:17:39.880Z,100368.20
2019-03-01T08:20:09.546Z,100372.90
2019-03-01T08:22:47.482Z,100374.84
2019-03-01T08:25:08.018Z,100378.30
2019-03-01T08:27:34.380Z,100382.72
2019-03-01T08:30:00.482Z,100386.23
2019-03-01T08:32:33.036Z,100385.09
2019-03-01T08:34:59.219Z,100388.54
2019-03-01T08:37:25.312Z,100384.86
2019-03-01T08:39:55.060Z,100390.37
2019-03-01T08:42:21.197Z,100400.38
2019-03-01T08:44:47.403Z,100396.25
2019-03-01T08:47:13.613Z,100403.27
2019-03-01T08:49:39.835Z,100402.45
2019-03-01T08:52:08.318Z,100406.06
2019-03-01T08:54:34.584Z,100408.89
2019-03-01T08:57:06.543Z,100409.82
2019-03-01T08:59:33.764Z,100408.95
2019-03-01T09:01:59.966Z,100414.03
2019-03-01T09:04:37.560Z,100419.05
2019-03-01T09:06:59.319Z,100421.75
2019-03-01T09:09:25.642Z,100420.50
2019-03-01T09:11:51.991Z,100419.55
2019-03-01T09:14:18.578Z,100422.89
2019-03-01T09:16:44.799Z,100424.03
2019-03-01T09:19:11.082Z,100424.56
2019-03-01T09:21:39.383Z,100423.02
2019-03-01T09:24:05.892Z,100424.61
2019-03-01T09:26:32.120Z,100425.75
2019-03-01T09:28:58.338Z,100423.23
2019-03-01T09:31:24.553Z,100426.76
2019-03-01T09:33:53.734Z,100424.94
2019-03-01T09:36:35.719Z,100429.88
2019-03-01T09:39:04.405Z,100435.64
2019-03-01T09:41:31.914Z,100432.74
2019-03-01T09:43:59.673Z,100430.02
2019-03-01T09:46:28.218Z,100436.59
2019-03-01T09:48:54.356Z,100441.95
2019-03-01T09:51:20.795Z,100441.86
2019-03-01T09:53:47.204Z,100447.86
2019-03-01T09:56:13.810Z,100442.94
2019-03-01T09:58:40.167Z,100448.63
2019-03-01T10:01:12.174Z,100448.28
2019-03-01T10:03:38.574Z,100449.94
2019-03-01T10:06:04.916Z,100444.45
2019-03-01T10:08:31.266Z,100449.52
2019-03-01T10:10:57.462Z,100458.69
2019-03-01T10:13:23.716Z,100454.86
2019-03-01T10:15:50.059Z,100466.88
2019-03-01T10:18:16.247Z,100467.75
2019-03-01T10:20:42.834Z,100470.58
2019-03-01T10:23:09.209Z,100478.16
2019-03-01T10:25:35.547Z,100481.09
2019-03-01T10:28:01.629Z,100480.97
2019-03-01T10:30:27.840Z,100479.89
2019-03-01T10:32:54.267Z,100484.79
2019-03-01T10:35:20.580Z,100493.84
2019-03-01T10:37:47.805Z,100487.84
2019-03-01T10:40:22.703Z,100493.09
2019-03-01T10:42:49.064Z,100502.16
2019-03-01T10:45:21.701Z,100495.64
2019-03-01T10:47:48.117Z,100495.27
2019-03-01T10:50:14.360Z,100502.46
2019-03-01T10:52:40.671Z,100499.55
2019-03-01T10:55:17.367Z,100509.38
2019-03-01T10:57:43.956Z,100505.30
2019-03-01T11:00:14.170Z,100511.76
2019-03-01T11:02:40.630Z,100513.80
2019-03-01T11:05:06.983Z,100512.97
2019-03-01T11:07:33.228Z,100512.42
2019-03-01T11:09:59.559Z,100512.19
2019-03-01T11:12:25.792Z,100514.55
2019-03-01T11:14:52.005Z,100518.95
2019-03-01T11:17:18.241Z,100517.64
2019-03-01T11:19:44.599Z,100529.25
2019-03-01T11:22:10.821Z,100531.03
2019-03-01T11:24:37.100Z,100534.03
2019-03-01T11:27:12.593Z,100530.12
2019-03-01T11:29:31.447Z,100531.70
2019-03-01T11:31:57.556Z,100541.98
2019-03-01T11:34:23.675Z,100552.27
2019-03-01T11:36:50.987Z,100547.94
2019-03-01T11:39:17.945Z,100552.16
2019-03-01T11:41:44.097Z,100553.13
2019-03-01T11:44:10.453Z,100568.89
2019-03-01T11:46:36.776Z,100566.80
2019-03-01T11:49:03.185Z,100567.97
2019-03-01T11:51:30.482Z,100564.23
2019-03-01T11:53:57.887Z,100578.51
2019-03-01T11:56:24.324Z,100584.90
2019-03-01T11:58:50.425Z,100593.47
2019-03-01T12:01:17.535Z,100596.68
2019-03-01T12:03:44.731Z,100595.28
2019-03-01T12:06:11.442Z,100594.75
2019-03-01T12:08:37.572Z,100594.63
2019-03-01T12:11:04.076Z,100601.08
2019-03-01T12:13:30.444Z,100603.48
2019-03-01T12:15:56.609Z,100610.88
2019-03-01T12:18:22.977Z,100610.15
2019-03-01T12:20:55.171Z,100608.70
2019-03-01T12:23:33.230Z,100617.28
2019-03-01T12:26:00.132Z,100627.98
2019-03-01T12:28:27.094Z,100634.68
2019-03-01T12:51:01.709Z,100673.75
2019-03-01T12:53:28.171Z,100685.34
2019-03-01T12:55:54.576Z,100683.59
2019-03-01T12:58:20.878Z,100691.36
2019-03-01T13:00:50.568Z,100702.46
2019-03-01T13:03:17.692Z,100709.39
2019-03-01T13:05:44.038Z,100697.98
2019-03-01T13:08:12.579Z,100697.34
2019-03-01T13:10:40.336Z,100703.02
2019-03-01T13:13:08.285Z,100700.51
2019-03-01T13:15:35.071Z,100701.80
2019-03-01T13:18:03.319Z,100697.92
2019-03-01T13:20:29.995Z,100702.80
2019-03-01T13:22:56.504Z,100697.95
2019-03-01T13:25:25.822Z,100701.46
2019-03-01T13:27:52.617Z,100698.80
2019-03-01T13:30:23.683Z,100700.66
2019-03-01T13:32:50.021Z,100702.77
2019-03-01T13:35:17.635Z,100701.30
2019-03-01T13:37:45.066Z,100700.66
2019-03-01T13:40:13.576Z,100713.73
2019-03-01T13:42:39.836Z,100708.93
2019-03-01T13:45:11.870Z,100717.27
2019-03-01T13:47:37.344Z,100717.50
2019-03-01T13:50:07.154Z,100726.11
2019-03-01T13:52:33.561Z,100726.53
2019-03-01T13:54:59.878Z,100717.16
2019-03-01T13:57:28.039Z,100716.09
2019-03-01T13:59:54.459Z,100717.11
2019-03-01T14:02:20.910Z,100713.33
2019-03-01T14:04:47.089Z,100720.48
2019-03-01T14:07:13.436Z,100716.98
2019-03-01T14:09:39.691Z,100718.85
2019-03-01T14:12:05.840Z,100723.91
2019-03-01T14:14:31.938Z,100727.92
2019-03-01T14:16:58.231Z,100736.52
2019-03-01T14:19:24.479Z,100745.70
2019-03-01T14:21:50.662Z,100746.13
2019-03-01T14:24:16.791Z,100744.41
2019-03-01T14:26:42.923Z,100734.77
2019-03-01T14:29:09.227Z,100727.38
2019-03-01T14:31:39.809Z,100732.23
2019-03-01T14:34:08.243Z,100743.40
2019-03-01T14:36:33.571Z,100748.74
2019-03-01T14:38:59.890Z,100748.20
2019-03-01T14:41:27.290Z,100743.18
2019-03-01T14:43:58.782Z,100749.14
2019-03-01T14:46:22.098Z,100747.97
2019-03-01T14:48:48.402Z,100750.63
2019-03-01T14:51:14.623Z,100746.59
2019-03-01T14:53:40.845Z,100750.42
2019-03-01T14:56:10.759Z,100756.23
2019-03-01T14:58:58.535Z,100764.58
2019-03-01T15:01:47.526Z,100769.37
2019-03-01T15:04:13.945Z,100778.89
2019-03-01T15:06:40.219Z,100779.98
2019-03-01T15:09:08.166Z,100773.59
2019-03-01T15:11:36.315Z,100778.14
2019-03-01T15:14:02.829Z,100776.52
2019-03-01T15:16:29.149Z,100780.13
2019-03-01T15:18:55.471Z,100787.36
2019-03-01T15:21:21.809Z,100779.92
2019-03-01T15:23:48.391Z,100786.80
2019-03-01T15:26:14.630Z,100789.05
2019-03-01T15:28:44.555Z,100782.92
2019-03-01T15:31:10.900Z,100790.24
2019-03-01T15:33:37.050Z,100791.05
2019-03-01T15:36:04.466Z,100796.18
2019-03-01T15:38:30.829Z,100797.29
2019-03-01T15:40:57.148Z,100800.70
2019-03-01T15:43:26.568Z,100805.46
2019-03-01T15:45:51.715Z,100806.83
2019-03-01T15:48:18.151Z,100809.78
2019-03-01T15:50:44.346Z,100814.03
2019-03-01T15:53:14.577Z,100819.80
2019-03-01T15:55:40.940Z,100817.41
2019-03-01T15:58:07.143Z,100823.67
2019-03-01T16:00:33.559Z,100820.71
2019-03-01T16:02:59.852Z,100828.61
2019-03-01T16:05:26.102Z,100825.05
2019-03-01T16:07:52.249Z,100822.89
2019-03-01T16:10:19.318Z,100824.67
2019-03-01T16:12:47.221Z,100833.53
2019-03-01T16:15:14.764Z,100829.38
2019-03-01T16:17:41.165Z,100838.70
2019-03-01T16:20:12.965Z,100842.19
2019-03-01T16:22:40.814Z,100841.49
2019-03-01T16:25:13.041Z,100842.32
2019-03-01T16:27:40.554Z,100851.04
2019-03-01T16:30:09.790Z,100862.30
2019-03-01T16:32:36.189Z,100861.88
2019-03-01T16:35:05.312Z,100869.31
2019-03-01T16:37:31.742Z,100875.13
2019-03-01T16:40:00.235Z,100873.01
2019-03-01T16:42:27.483Z,100884.95
2019-03-01T16:44:53.667Z,100886.86
2019-03-01T16:47:19.897Z,100884.27
2019-03-01T16:49:46.129Z,100887.02
2019-03-01T16:52:13.348Z,100886.44
2019-03-01T16:54:39.672Z,100887.55
2019-03-01T16:57:06.220Z,100892.31
2019-03-01T16:59:32.536Z,100899.83
2019-03-01T17:01:58.863Z,100901.00
2019-03-01T17:04:27.418Z,100899.47
2019-03-01T17:07:05.549Z,100907.05
2019-03-01T17:09:34.998Z,100905.63
2019-03-01T17:12:05.870Z,100913.96
2019-03-01T17:14:34.911Z,100918.42
2019-03-01T17:17:00.729Z,100922.05
2019-03-01T17:19:31.835Z,100926.02
2019-03-01T17:21:58.042Z,100934.02
2019-03-01T17:24:24.376Z,100940.94
2019-03-01T17:26:50.706Z,100944.58
2019-03-01T17:29:16.912Z,100948.13
2019-03-01T17:31:43.174Z,100943.47
2019-03-01T17:34:09.536Z,100941.52
2019-03-01T17:36:35.817Z,100940.73
2019-03-01T17:39:06.116Z,100937.14
2019-03-01T17:41:34.232Z,100935.70
2019-03-01T17:44:08.598Z,100939.57
2019-03-01T17:46:34.876Z,100939.73
2019-03-01T17:49:07.008Z,100945.86
2019-03-01T17:51:33.173Z,100947.31
2019-03-01T17:54:07.696Z,100945.55
2019-03-01T17:56:36.691Z,100948.29
2019-03-01T17:59:11.610Z,100951.18
2019-03-01T18:01:39.170Z,100956.75
2019-03-01T18:04:06.874Z,100961.53
2019-03-01T18:06:33.324Z,100964.75
2019-03-01T18:08:59.762Z,100963.92
2019-03-01T18:11:26.196Z,100966.35
2019-03-01T18:14:00.351Z,100969.91
2019-03-01T18:16:25.712Z,100965.87
2019-03-01T18:19:09.166Z,100965.56
2019-03-01T18:21:35.500Z,100962.16
2019-03-01T18:24:11.019Z,100960.78
2019-03-01T18:26:40.024Z,100958.92
2019-03-01T18:29:08.382Z,100960.88
2019-03-01T18:31:35.565Z,100964.91
2019-03-01T18:34:06.560Z,100961.03
2019-03-01T18:36:33.029Z,100967.33
2019-03-01T18:39:00.192Z,100961.34
2019-03-01T18:41:27.413Z,100964.59
2019-03-01T18:43:54.713Z,100967.64
2019-03-01T18:46:20.934Z,100970.13
2019-03-01T18:48:47.229Z,100981.99
2019-03-01T18:51:13.377Z,100985.45
2019-03-01T18:53:39.770Z,100990.71
2019-03-01T18:56:11.251Z,100995.88
2019-03-01T18:58:38.582Z,100996.34
2019-03-01T19:01:07.815Z,100995.41
2019-03-01T19:03:36.491Z,101002.42
2019-03-01T19:06:04.735Z,101003.46
2019-03-01T19:08:31.260Z,101006.14
2019-03-01T19:10:59.745Z,100999.12
2019-03-01T19:13:25.838Z,101006.36
2019-03-01T19:15:54.594Z,101005.88
2019-03-01T19:18:20.402Z,101007.02
2019-03-01T19:20:49.147Z,101007.33
2019-03-01T19:23:15.697Z,101002.48
2019-03-01T19:25:41.946Z,101007.84
2019-03-01T19:28:08.412Z,101005.73
2019-03-01T19:30:34.768Z,101013.41
2019-03-01T19:33:02.200Z,101003.55
2019-03-01T19:35:33.299Z,100994.52
2019-03-01T19:37:59.694Z,100998.14
2019-03-01T19:40:25.891Z,101003.72
2019-03-01T19:42:52.373Z,101007.43
2019-03-01T19:45:18.948Z,101004.13
2019-03-01T19:47:45.183Z,101011.36
2019-03-01T19:50:13.620Z,101012.23
2019-03-01T19:52:39.955Z,101009.28
2019-03-01T19:55:11.770Z,101008.31
2019-03-01T19:57:37.621Z,101008.16
2019-03-01T20:00:14.035Z,101011.87
2019-03-01T20:02:40.462Z,101014.45
2019-03-01T20:05:09.802Z,101015.80
2019-03-01T20:07:36.126Z,101017.48
2019-03-01T20:10:05.792Z,101020.23
2019-03-01T20:12:32.209Z,101017.55
2019-03-01T20:14:58.435Z,101021.02
2019-03-01T20:17:25.219Z,101017.80
2019-03-01T20:19:53.609Z,101023.33
2019-03-01T20:22:19.659Z,101018.70
2019-03-01T20:24:45.984Z,101021.21
2019-03-01T20:27:12.280Z,101024.27
2019-03-01T20:29:38.640Z,101028.12
2019-03-01T20:32:04.976Z,101028.80
2019-03-01T20:34:31.421Z,101026.53
2019-03-01T20:36:59.398Z,101033.14
2019-03-01T20:39:25.706Z,101030.16
2019-03-01T20:41:52.027Z,101039.38
2019-03-01T20:44:19.860Z,101037.27
2019-03-01T20:46:46.200Z,101036.65
2019-03-01T20:49:12.658Z,101036.19
2019-03-01T20:51:39.151Z,101032.30
2019-03-01T20:54:05.632Z,101029.10
2019-03-01T20:56:33.913Z,101030.54
2019-03-01T20:59:00.180Z,101023.67
2019-03-01T21:01:27.765Z,101025.62
2019-03-01T21:03:54.003Z,101024.86
2019-03-01T21:06:20.438Z,101018.66
2019-03-01T21:08:46.614Z,101021.14
2019-03-01T21:11:12.979Z,101023.42
2019-03-01T21:13:39.097Z,101025.55
2019-03-01T21:16:05.435Z,101029.83
2019-03-01T21:18:34.170Z,101034.42
2019-03-01T21:21:00.035Z,101032.00
2019-03-01T21:23:26.292Z,101033.30
2019-03-01T21:25:52.669Z,101029.74
2019-03-01T21:28:18.877Z,101026.44
2019-03-01T21:30:45.670Z,101027.98
2019-03-01T21:33:11.967Z,101027.66
2019-03-01T21:35:38.286Z,101024.05
2019-03-01T21:38:04.740Z,101022.66
2019-03-01T21:40:31.478Z,101026.53
2019-03-01T21:43:00.149Z,101030.09
2019-03-01T21:45:26.513Z,101033.24
2019-03-01T21:47:52.967Z,101034.28
2019-03-01T21:50:19.373Z,101029.94
2019-03-01T21:52:45.685Z,101033.81
2019-03-01T21:55:14.202Z,101030.31
2019-03-01T21:57:40.590Z,101032.11
2019-03-01T22:00:13.448Z,101034.44
2019-03-01T22:02:41.815Z,101037.02
2019-03-01T22:05:13.506Z,101037.37
2019-03-01T22:07:38.519Z,101039.59
2019-03-01T22:10:10.537Z,101039.91
2019-03-01T22:12:37.290Z,101036.33
2019-03-01T22:15:10.133Z,101034.47
2019-03-01T22:17:36.375Z,101043.05
2019-03-01T22:20:05.657Z,101049.19
2019-03-01T22:22:34.191Z,101043.54
2019-03-01T22:25:02.205Z,101047.22
2019-03-01T22:27:28.874Z,101045.80
2019-03-01T22:29:56.403Z,101045.77
2019-03-01T22:32:22.691Z,101050.21
2019-03-01T22:34:49.176Z,101054.14
2019-03-01T22:37:15.297Z,101046.18
2019-03-01T22:39:42.831Z,101049.47
2019-03-01T22:42:11.444Z,101056.87
2019-03-01T22:44:37.373Z,101053.00
2019-03-01T22:47:03.711Z,101052.38
2019-03-01T22:49:31.808Z,101048.83
2019-03-01T22:51:58.149Z,101043.93
2019-03-01T22:54:24.357Z,101046.81
2019-03-01T22:56:50.673Z,101048.98
2019-03-01T22:59:16.791Z,101047.22
2019-03-01T23:01:43.093Z,101054.29
2019-03-01T23:04:09.641Z,101049.56
2019-03-01T23:06:35.732Z,101052.09
2019-03-01T23:09:04.219Z,101051.40
2019-03-01T23:11:33.584Z,101049.97
2019-03-01T23:14:00.017Z,101058.30
2019-03-01T23:16:26.115Z,101050.78
2019-03-01T23:18:56.737Z,101056.42
2019-03-01T23:21:20.449Z,101051.26
2019-03-01T23:23:46.697Z,101047.67
2019-03-01T23:26:12.895Z,101054.57
2019-03-01T23:28:40.798Z,101054.91
2019-03-01T23:31:07.704Z,101058.97
2019-03-01T23:33:33.919Z,101048.66
2019-03-01T23:36:00.279Z,101045.60
2019-03-01T23:38:26.473Z,101048.33
2019-03-01T23:40:52.571Z,101044.23
2019-03-01T23:43:18.675Z,101038.47
2019-03-01T23:45:44.765Z,101043.79
2019-03-01T23:48:13.640Z,101041.28
2019-03-01T23:50:39.157Z,101036.46
2019-03-01T23:53:05.375Z,101038.02
2019-03-01T23:55:31.572Z,101040.97
2019-03-01T23:58:05.789Z,101039.99
